Terminal Aerodrome Forecast
Issued by NWS Chicago, IL

Home | Current Version | Previous Version | Graphics & Text | Print | Product List | Glossary On
Versions: 1 2 3 4 5 6 7 8 9 10 11 12 13 14 15 16 17 18 19 20 21 22 23 24 25 26 27 28 29 30
692
FTUS43 KLOT 300900 AAB
TAFRFD
TAF AMD
KRFD 300900Z 3009/3106 26005KT 6SM -SHRA BR SCT003 BKN040
     FM301000 VRB03KT 5SM BR SCT050 BKN120
      TEMPO 3010/3013 2SM BR
     FM301400 28005KT P6SM VCSH SCT025 BKN080
     FM301800 27007KT P6SM VCSH BKN035 PROB30 3018/3024 2SM TSRA
      SCT020 OVC030CB
     FM310000 29005KT P6SM SCT040 BKN180=

USA.gov is the U.S. government's official web portal to all federal, state and local government web resources and services.